San Diego, California
Traffic Map
Current Weather Conditions
San Diego, California
Broken Clouds
Broken Clouds
17°
Feels Like: 17°
Wind Chill: 17° Ceiling: 1500
Heat Index: 17° Visibility: 10mi
Dew Point: 11° Wind: 8mph
Humidity: 67% Direction: 220° (SW)
Pressure: 29.91in Gusts: 0mph
Raw Report DataKSAN 240751Z 22007KT 10SM BKN015 BKN250 17/11 A2991 RMK AO2 SLP129 T01720111 402060167
Traffic Incident Summary
Active as of:
Severity:
Category:
InformationThere was an issue retrieving the traffic information for this location. Please try a different location or try again shortly.
Advertisements
Track Severe Weather on mobile